Time;durP1;ratioP1;P1;durP2;ratioP2;P2;SDS_P1;SDS_P2;PMS_P1;PMS_P2;Temp;Humidity;BMP_temperature;BMP_pressure;BME280_temperature;BME280_humidity;BME280_pressure;Samples;Min_cycle;Max_cycle;Signal;HPM_P1;HPM_P2
2023/12/20 00:02:18;;;;;;;27.17;15.15;;;;;;;1.57;74.40;99697.31;4925162;29;20055;-92
2023/12/20 00:04:43;;;;;;;28.92;16.73;;;;;;;1.38;74.94;99678.50;4909373;29;20031;-93
2023/12/20 00:07:09;;;;;;;32.60;16.25;;;;;;;1.30;75.14;99669.91;4909685;29;20042;-93
2023/12/20 00:09:34;;;;;;;26.70;15.32;;;;;;;1.60;74.90;99704.88;4925786;29;20034;-93
2023/12/20 00:12:00;;;;;;;39.95;16.63;;;;;;;1.44;75.40;99689.34;4925016;29;20038;-93
2023/12/20 00:14:25;;;;;;;29.17;15.90;;;;;;;1.37;74.86;99682.19;4909841;29;20101;-93
2023/12/20 00:16:51;;;;;;;24.80;14.75;;;;;;;1.26;75.18;99666.03;4908685;28;20093;-92
2023/12/20 00:19:16;;;;;;;26.73;14.68;;;;;;;1.30;74.76;99652.16;4924970;29;20146;-93
2023/12/20 00:21:44;;;;;;;28.27;14.93;;;;;;;1.36;74.98;99672.56;4924674;29;20093;-94
2023/12/20 00:24:10;;;;;;;21.25;14.30;;;;;;;1.12;75.48;99652.75;4908305;29;20035;-92
2023/12/20 00:26:36;;;;;;;24.65;14.65;;;;;;;1.44;74.78;99681.38;4910207;29;20111;-92
2023/12/20 00:29:01;;;;;;;24.67;14.98;;;;;;;1.38;74.77;99675.84;4925216;29;20023;-92
2023/12/20 00:31:27;;;;;;;23.10;13.57;;;;;;;1.40;74.74;99657.88;4908703;29;20042;-92
2023/12/20 00:33:53;;;;;;;30.25;14.52;;;;;;;1.48;74.58;99667.50;4909747;29;20057;-92
2023/12/20 00:36:18;;;;;;;26.42;15.48;;;;;;;1.50;74.91;99664.66;4924503;29;20032;-92
2023/12/20 00:38:49;;;;;;;28.92;15.18;;;;;;;1.52;74.80;99663.44;4908948;29;20027;-92
2023/12/20 00:41:15;;;;;;;31.90;17.33;;;;;;;1.63;74.49;99661.19;4909182;29;20035;-93
2023/12/20 00:43:41;;;;;;;31.70;16.33;;;;;;;1.60;74.87;99657.13;4909382;29;20066;-92
2023/12/20 00:46:06;;;;;;;28.15;15.55;;;;;;;1.51;74.58;99645.03;4909896;29;20019;-92
2023/12/20 00:48:32;;;;;;;32.15;16.67;;;;;;;1.55;75.22;99664.84;4908791;29;20038;-91
2023/12/20 00:50:57;;;;;;;31.67;16.45;;;;;;;1.45;75.23;99645.84;4924469;29;20043;-91
2023/12/20 00:53:23;;;;;;;29.83;15.98;;;;;;;1.33;75.54;99635.84;4908409;29;20034;-92
2023/12/20 00:55:50;;;;;;;26.35;15.93;;;;;;;1.59;75.28;99668.72;4909113;29;20032;-92
2023/12/20 00:58:17;;;;;;;32.85;16.92;;;;;;;1.52;74.82;99647.50;4893655;29;20557;-92
2023/12/20 01:00:43;;;;;;;25.13;15.73;;;;;;;1.50;74.90;99654.03;4925279;29;20066;-92
2023/12/20 01:03:09;;;;;;;33.35;18.52;;;;;;;1.41;74.43;99640.13;4909081;29;20052;-92
2023/12/20 01:05:34;;;;;;;35.88;19.15;;;;;;;1.29;74.90;99631.97;4908768;29;20071;-93
2023/12/20 01:08:02;;;;;;;29.33;16.83;;;;;;;1.17;74.47;99615.81;4908007;29;20039;-92
2023/12/20 01:10:30;;;;;;;28.20;16.23;;;;;;;1.37;74.29;99647.69;4909008;29;20059;-93
2023/12/20 01:12:56;;;;;;;28.13;16.48;;;;;;;1.34;74.48;99634.81;4909901;29;20031;-93
2023/12/20 01:15:22;;;;;;;28.30;16.15;;;;;;;1.32;74.79;99609.50;4924136;29;20038;-92
2023/12/20 01:17:49;;;;;;;29.20;17.25;;;;;;;1.48;74.60;99645.47;4907900;29;20031;-92
2023/12/20 01:20:14;;;;;;;32.00;15.63;;;;;;;1.17;73.99;99630.91;4909283;29;20412;-92
2023/12/20 01:22:42;;;;;;;25.55;15.13;;;;;;;1.02;74.76;99607.22;4908350;29;20093;-92
2023/12/20 01:25:08;;;;;;;30.27;15.52;;;;;;;0.94;75.26;99610.88;4908499;29;20427;-92
2023/12/20 01:27:33;;;;;;;22.83;14.60;;;;;;;1.03;75.08;99606.19;4909497;29;20038;-93
2023/12/20 01:29:59;;;;;;;24.48;15.35;;;;;;;1.19;74.73;99629.69;4926328;29;20038;-91
2023/12/20 01:32:24;;;;;;;26.73;15.10;;;;;;;0.81;75.69;99587.00;4911155;29;20118;-91
2023/12/20 01:34:50;;;;;;;24.60;15.02;;;;;;;0.79;75.19;99597.78;4912408;29;20023;-92
2023/12/20 01:37:15;;;;;;;23.85;13.57;;;;;;;0.77;75.70;99591.84;4928143;29;20107;-93
2023/12/20 01:39:41;;;;;;;23.42;13.77;;;;;;;0.76;75.78;99589.41;4912589;29;20023;-93
2023/12/20 01:42:06;;;;;;;21.10;13.45;;;;;;;0.77;75.38;99570.66;4912301;29;20019;-93
2023/12/20 01:44:32;;;;;;;24.60;12.75;;;;;;;0.92;75.44;99573.13;4911708;29;20023;-92
2023/12/20 01:46:57;;;;;;;22.60;13.68;;;;;;;1.00;75.19;99578.25;4911535;29;20024;-92
2023/12/20 01:49:23;;;;;;;21.60;12.07;;;;;;;0.99;75.25;99573.16;4928062;29;20027;-92
2023/12/20 01:51:49;;;;;;;21.30;12.35;;;;;;;0.92;75.35;99557.22;4911910;29;20078;-92
2023/12/20 01:54:15;;;;;;;20.58;11.73;;;;;;;1.10;74.51;99556.66;4927293;29;20024;-92
2023/12/20 01:56:40;;;;;;;24.02;14.10;;;;;;;0.99;74.50;99560.69;4928639;29;20030;-92
2023/12/20 01:59:06;;;;;;;23.48;13.18;;;;;;;0.86;74.85;99558.03;4911410;29;20019;-94
2023/12/20 02:01:31;;;;;;;24.70;12.93;;;;;;;0.67;75.88;99534.97;4912074;29;20560;-92
2023/12/20 02:03:57;;;;;;;25.88;13.70;;;;;;;0.72;75.59;99535.16;4911695;29;20054;-93
2023/12/20 02:06:22;;;;;;;24.27;13.27;;;;;;;0.60;75.96;99527.81;4911674;29;20087;-92
2023/12/20 02:08:49;;;;;;;21.92;14.60;;;;;;;0.55;75.74;99524.13;4911836;29;20394;-92
2023/12/20 02:11:15;;;;;;;21.05;13.00;;;;;;;0.73;75.24;99523.56;4911750;29;20466;-92
2023/12/20 02:13:40;;;;;;;22.45;13.82;;;;;;;0.71;75.58;99497.25;4910895;29;20027;-91
2023/12/20 02:16:07;;;;;;;24.55;13.48;;;;;;;0.88;75.30;99531.34;4911598;29;20026;-92
2023/12/20 02:18:33;;;;;;;24.77;14.45;;;;;;;0.65;75.46;99503.34;4911206;29;20019;-92
2023/12/20 02:20:58;;;;;;;21.30;14.10;;;;;;;0.67;75.48;99516.41;4911184;29;20027;-92
2023/12/20 02:23:24;;;;;;;26.85;14.82;;;;;;;0.77;75.86;99522.94;4911561;29;20031;-93
2023/12/20 02:25:52;;;;;;;23.92;13.65;;;;;;;0.53;75.63;99499.66;4942901;29;20485;-92
2023/12/20 02:28:17;;;;;;;26.40;14.82;;;;;;;0.53;76.36;99503.13;4911419;29;20057;-91
2023/12/20 02:30:43;;;;;;;23.70;14.77;;;;;;;0.48;76.42;99502.91;4910949;29;20063;-94
2023/12/20 02:33:11;;;;;;;26.73;15.45;;;;;;;0.54;75.41;99495.97;4927376;29;20030;-91
2023/12/20 02:35:37;;;;;;;25.25;15.05;;;;;;;0.67;75.12;99488.06;4926748;29;20020;-93
2023/12/20 02:38:05;;;;;;;27.25;15.25;;;;;;;0.54;75.38;99485.38;4927393;29;20016;-93
2023/12/20 02:40:32;;;;;;;24.27;15.10;;;;;;;0.43;76.00;99467.44;4926692;29;20023;-92
2023/12/20 02:42:57;;;;;;;38.17;20.58;;;;;;;0.46;75.97;99467.84;4925635;29;20306;-93
2023/12/20 02:45:23;;;;;;;27.00;16.27;;;;;;;0.52;75.66;99477.66;4910394;29;20019;-94
2023/12/20 02:47:48;;;;;;;25.20;14.98;;;;;;;0.41;76.39;99464.97;4910410;29;20405;-92
2023/12/20 02:50:14;;;;;;;30.80;16.40;;;;;;;0.42;76.30;99458.69;4910369;29;20042;-93
2023/12/20 02:52:39;;;;;;;36.15;18.05;;;;;;;0.43;76.47;99456.84;4911076;29;20503;-93
2023/12/20 02:55:05;;;;;;;29.00;16.92;;;;;;;0.56;75.73;99475.41;4926383;29;20030;-92
2023/12/20 02:57:32;;;;;;;31.92;16.70;;;;;;;0.58;75.88;99479.50;4910247;29;20223;-93
2023/12/20 02:59:57;;;;;;;27.65;15.90;;;;;;;0.55;75.92;99476.44;4911140;29;20437;-93
2023/12/20 03:02:23;;;;;;;36.30;17.48;;;;;;;0.43;76.48;99446.25;4910684;29;20051;-91
2023/12/20 03:04:48;;;;;;;33.75;15.70;;;;;;;0.47;76.28;99450.13;4910104;29;20031;-91
2023/12/20 03:07:14;;;;;;;29.80;17.02;;;;;;;0.35;76.81;99441.94;4910171;29;20026;-93
2023/12/20 03:09:39;;;;;;;30.17;15.48;;;;;;;0.45;76.56;99460.09;4926208;29;20379;-93
2023/12/20 03:12:25;;;;;;;30.90;16.85;;;;;;;0.39;75.95;99446.66;4925997;29;20027;-92
2023/12/20 03:14:50;;;;;;;25.55;15.05;;;;;;;0.56;75.69;99449.75;4865855;29;20064;-92
2023/12/20 03:17:16;;;;;;;30.77;15.60;;;;;;;0.64;75.49;99435.47;4865123;29;20057;-92
2023/12/20 03:19:41;;;;;;;29.45;16.63;;;;;;;0.53;75.88;99431.59;4865578;29;20060;-92
2023/12/20 03:22:07;;;;;;;24.05;16.02;;;;;;;0.71;75.79;99454.84;4865425;29;20037;-92
2023/12/20 03:24:32;;;;;;;26.50;15.95;;;;;;;0.64;75.36;99424.06;4850335;29;20032;-91
2023/12/20 03:26:59;;;;;;;32.80;16.88;;;;;;;0.68;75.24;99412.84;4851211;29;20112;-92
2023/12/20 03:29:25;;;;;;;26.85;15.70;;;;;;;0.78;75.22;99436.31;4865676;29;20076;-93
2023/12/20 03:31:50;;;;;;;27.73;15.40;;;;;;;0.63;74.91;99425.91;4865533;29;20472;-92
2023/12/20 03:34:16;;;;;;;29.67;15.40;;;;;;;0.49;74.76;99413.66;4865099;29;20032;-91
2023/12/20 03:36:41;;;;;;;31.00;16.75;;;;;;;0.53;75.36;99436.88;4849263;29;20025;-92
2023/12/20 03:39:09;;;;;;;26.50;15.73;;;;;;;0.60;75.05;99445.69;4849826;29;20100;-92
2023/12/20 03:41:35;;;;;;;34.65;16.25;;;;;;;0.47;75.52;99415.69;4850982;29;20551;-92
2023/12/20 03:44:01;;;;;;;29.45;17.40;;;;;;;0.41;75.57;99417.28;4849594;29;20036;-92
2023/12/20 03:46:26;;;;;;;35.88;17.33;;;;;;;0.30;75.61;99408.13;4866007;29;20073;-92
2023/12/20 03:48:52;;;;;;;29.55;15.48;;;;;;;0.34;75.84;99414.66;4880907;29;20515;-92
2023/12/20 03:51:17;;;;;;;28.35;16.80;;;;;;;0.19;76.01;99393.63;4849224;29;20029;-91
2023/12/20 03:53:43;;;;;;;26.70;15.38;;;;;;;0.24;75.39;99395.69;4849922;29;20036;-92
2023/12/20 03:56:08;;;;;;;21.73;13.82;;;;;;;0.29;75.32;99414.44;4865283;29;20060;-92
2023/12/20 03:58:34;;;;;;;30.48;14.50;;;;;;;0.24;75.45;99400.16;4867252;29;20059;-95
2023/12/20 04:01:40;;;;;;;23.58;14.10;;;;;;;0.05;75.56;99381.38;4859511;29;20048;-96
2023/12/20 04:04:16;;;;;;;26.90;15.23;;;;;;;0.08;75.22;99386.25;4799009;29;20118;-96
2023/12/20 04:06:58;;;;;;;24.38;15.40;;;;;;;-0.07;75.61;99359.16;4828011;29;20083;-96
2023/12/20 04:09:24;;;;;;;28.50;15.50;;;;;;;-0.02;75.89;99369.97;4878204;29;20112;-95
2023/12/20 04:11:53;;;;;;;25.20;16.00;;;;;;;0.18;76.15;99407.88;4875979;29;20056;-96
2023/12/20 04:14:25;;;;;;;28.17;15.88;;;;;;;-0.06;75.99;99374.84;4860639;29;20531;-95
2023/12/20 04:16:56;;;;;;;29.95;16.65;;;;;;;-0.20;76.39;99359.94;4859506;29;20439;-95
2023/12/20 04:19:23;;;;;;;29.50;16.10;;;;;;;-0.01;76.45;99393.56;4874775;29;20036;-95
2023/12/20 04:21:53;;;;;;;30.13;16.08;;;;;;;-0.17;76.86;99366.66;4874437;29;20576;-96
2023/12/20 04:24:19;;;;;;;31.20;16.92;;;;;;;0.08;77.12;99377.50;4875607;29;20041;-95
2023/12/20 04:26:46;;;;;;;25.88;15.52;;;;;;;0.10;76.05;99375.47;4859564;29;20037;-96
2023/12/20 04:29:24;;;;;;;32.70;15.95;;;;;;;-0.09;76.06;99340.00;4863974;29;20040;-96
2023/12/20 04:31:54;;;;;;;25.42;15.40;;;;;;;0.02;75.96;99354.47;4892143;29;20041;-96
2023/12/20 04:34:27;;;;;;;28.73;17.25;;;;;;;0.19;75.90;99385.69;4863470;29;20139;-96
2023/12/20 04:37:15;;;;;;;31.40;18.20;;;;;;;-0.04;76.13;99350.84;4896210;29;20036;-94
2023/12/20 04:40:27;;;;;;;33.67;17.55;;;;;;;-0.12;75.91;99345.72;4900280;29;20037;-96
2023/12/20 04:43:10;;;;;;;25.80;16.48;;;;;;;0.02;76.00;99371.19;4870488;29;20072;-93
2023/12/20 04:45:36;;;;;;;35.45;17.15;;;;;;;0.06;75.95;99375.06;4848700;29;20133;-93
2023/12/20 04:48:02;;;;;;;32.83;17.52;;;;;;;-0.19;75.97;99327.16;4848923;29;20036;-91
2023/12/20 04:50:27;;;;;;;35.25;18.45;;;;;;;-0.06;76.49;99344.91;4849356;29;20033;-92
2023/12/20 04:52:53;;;;;;;31.60;17.92;;;;;;;-0.03;76.59;99350.59;4845438;29;20035;-91
2023/12/20 04:55:18;;;;;;;32.60;18.42;;;;;;;0.08;76.09;99348.41;4863579;29;20056;-93
2023/12/20 04:57:44;;;;;;;34.10;19.48;;;;;;;-0.05;75.77;99330.66;4849061;29;20025;-91
2023/12/20 05:00:10;;;;;;;35.70;19.42;;;;;;;0.02;76.14;99331.47;4841645;29;20065;-94
2023/12/20 05:02:36;;;;;;;38.40;19.70;;;;;;;0.12;76.23;99361.03;4867495;29;20071;-92
2023/12/20 05:05:02;;;;;;;36.92;19.40;;;;;;;0.06;75.83;99335.34;4923431;29;20034;-92
2023/12/20 05:07:27;;;;;;;36.45;18.42;;;;;;;0.02;76.30;99334.13;4920494;29;20042;-93
2023/12/20 05:10:01;;;;;;;35.38;18.65;;;;;;;0.06;75.96;99345.94;4908027;29;20035;-92
2023/12/20 05:12:30;;;;;;;34.60;19.02;;;;;;;0.17;75.98;99366.53;4923685;29;20035;-93
2023/12/20 05:14:56;;;;;;;36.47;18.85;;;;;;;0.17;75.81;99353.31;4930152;29;20465;-92
2023/12/20 05:17:21;;;;;;;34.70;19.60;;;;;;;0.05;76.00;99325.78;4926128;29;20031;-94
2023/12/20 05:19:47;;;;;;;38.20;19.15;;;;;;;0.02;75.37;99312.94;4909598;29;20469;-91
2023/12/20 05:22:12;;;;;;;36.65;19.38;;;;;;;0.00;75.01;99309.72;4945451;29;20093;-92
2023/12/20 05:24:38;;;;;;;33.65;18.67;;;;;;;0.10;75.25;99318.03;4909431;29;20118;-91
2023/12/20 05:27:04;;;;;;;38.83;19.88;;;;;;;0.32;75.68;99350.47;4931852;28;20033;-91
2023/12/20 05:29:32;;;;;;;36.63;18.00;;;;;;;0.25;75.07;99325.00;4941596;28;20405;-93
2023/12/20 05:31:58;;;;;;;38.60;23.63;;;;;;;0.12;75.56;99305.44;4927272;28;20043;-92
2023/12/20 05:34:24;;;;;;;37.55;21.27;;;;;;;0.31;75.09;99316.25;4930229;29;20048;-92
2023/12/20 05:36:49;;;;;;;40.10;21.60;;;;;;;0.48;75.35;99330.72;4907385;29;20046;-93
2023/12/20 05:39:15;;;;;;;40.58;21.30;;;;;;;0.36;75.01;99305.88;4925218;29;20062;-94
2023/12/20 05:41:44;;;;;;;41.05;21.38;;;;;;;0.52;75.24;99334.59;4916136;29;20144;-95
2023/12/20 05:44:10;;;;;;;39.33;21.25;;;;;;;0.46;74.30;99306.28;4925205;29;20031;-95
2023/12/20 05:46:36;;;;;;;44.80;23.27;;;;;;;0.70;74.00;99315.41;4907657;29;20023;-92
2023/12/20 05:49:04;;;;;;;43.83;23.00;;;;;;;0.67;74.17;99321.13;4924524;28;21472;-91
2023/12/20 05:51:30;;;;;;;47.13;21.23;;;;;;;0.69;74.28;99308.50;4911624;29;20872;-92
2023/12/20 05:54:01;;;;;;;44.05;20.40;;;;;;;0.84;73.79;99318.88;4939630;29;20118;-93
2023/12/20 05:56:30;;;;;;;44.88;20.85;;;;;;;0.76;73.79;99289.94;4925484;29;20059;-93
2023/12/20 05:58:59;;;;;;;39.70;21.10;;;;;;;0.95;73.62;99286.41;4907646;28;20061;-93
2023/12/20 06:01:25;;;;;;;37.65;21.35;;;;;;;1.10;73.80;99319.84;4912701;29;20039;-93
2023/12/20 06:03:50;;;;;;;36.80;21.05;;;;;;;0.87;73.29;99278.72;4930887;28;20125;-92
2023/12/20 06:06:28;;;;;;;39.70;22.98;;;;;;;1.14;73.11;99316.56;4956392;28;20034;-96
2023/12/20 06:08:54;;;;;;;46.85;25.17;;;;;;;1.02;73.38;99304.97;4950065;29;20050;-94
2023/12/20 06:11:19;;;;;;;37.10;22.50;;;;;;;1.18;73.25;99306.34;4911765;29;20047;-95
2023/12/20 06:13:45;;;;;;;38.25;21.70;;;;;;;1.15;72.77;99288.22;4938842;28;20035;-96
2023/12/20 06:16:11;;;;;;;39.97;22.05;;;;;;;1.26;73.10;99298.16;4947911;28;20023;-95
2023/12/20 06:18:36;;;;;;;50.70;23.10;;;;;;;1.53;73.55;99316.63;4933391;28;20037;-95
2023/12/20 06:21:02;;;;;;;41.55;21.92;;;;;;;1.40;73.04;99283.81;4949318;28;20046;-95
2023/12/20 06:23:28;;;;;;;48.08;22.80;;;;;;;1.20;74.00;99267.19;4934091;29;20039;-96
2023/12/20 06:25:56;;;;;;;40.72;25.00;;;;;;;1.17;74.03;99284.31;4915727;29;20027;-95
2023/12/20 06:28:22;;;;;;;59.67;34.80;;;;;;;1.40;72.79;99272.41;4927984;29;20383;-94
2023/12/20 06:30:49;;;;;;;36.83;22.45;;;;;;;1.55;72.45;99285.41;4914804;29;20087;-95
2023/12/20 06:33:15;;;;;;;49.13;25.25;;;;;;;1.71;72.25;99300.03;4914874;29;20035;-96
2023/12/20 06:36:01;;;;;;;37.78;22.85;;;;;;;1.64;72.25;99280.66;4911017;29;20431;-95
2023/12/20 06:38:30;;;;;;;45.30;25.00;;;;;;;1.64;71.72;99273.53;4917195;29;20040;-96
2023/12/20 06:40:57;;;;;;;39.15;21.13;;;;;;;1.86;71.72;99279.31;4914202;29;20023;-95
2023/12/20 06:43:34;;;;;;;39.83;22.20;;;;;;;1.88;71.49;99277.25;4948303;29;20023;-94
2023/12/20 06:46:13;;;;;;;45.42;21.95;;;;;;;1.93;71.32;99271.28;4924606;29;20031;-95
2023/12/20 06:48:42;;;;;;;53.30;22.80;;;;;;;2.10;71.96;99296.31;4949102;29;20047;-94
2023/12/20 06:51:17;;;;;;;41.13;23.02;;;;;;;2.10;71.46;99267.09;4915547;29;20078;-93
2023/12/20 06:53:42;;;;;;;47.05;24.55;;;;;;;2.17;71.19;99273.16;4915873;29;20031;-93
2023/12/20 06:56:09;;;;;;;48.55;26.20;;;;;;;2.12;71.13;99265.03;4914385;29;20031;-93
2023/12/20 06:58:36;;;;;;;52.83;26.90;;;;;;;2.12;71.90;99253.63;4917775;28;20034;-92
2023/12/20 07:01:02;;;;;;;47.65;26.67;;;;;;;2.18;71.17;99240.28;4923985;29;20106;-94
2023/12/20 07:03:57;;;;;;;61.05;32.30;;;;;;;2.51;70.49;99263.09;4908919;29;20043;-96
2023/12/20 07:06:26;;;;;;;58.78;30.88;;;;;;;2.77;69.86;99263.84;4874617;29;20041;-91
2023/12/20 07:08:52;;;;;;;58.47;30.67;;;;;;;3.03;69.65;99271.56;4919728;29;20076;-96
2023/12/20 07:11:21;;;;;;;58.53;31.88;;;;;;;3.18;68.59;99265.88;4860524;29;20039;-96
2023/12/20 07:13:47;;;;;;;58.78;32.05;;;;;;;3.38;68.49;99264.78;4855644;29;20029;-96
2023/12/20 07:16:24;;;;;;;54.63;31.98;;;;;;;3.42;67.88;99244.69;4839974;29;20132;-95
2023/12/20 07:18:50;;;;;;;55.45;32.78;;;;;;;3.74;67.94;99274.56;4859707;29;20028;-90
2023/12/20 07:21:15;;;;;;;57.70;34.25;;;;;;;3.68;67.45;99250.72;4862259;29;20456;-93
2023/12/20 07:23:41;;;;;;;63.92;34.05;;;;;;;3.92;67.13;99262.22;4893353;29;20037;-93
2023/12/20 07:26:27;;;;;;;68.68;36.53;;;;;;;3.49;67.36;99249.94;4842206;29;20033;-95
2023/12/20 07:29:04;;;;;;;66.78;37.80;;;;;;;3.55;67.52;99241.88;4912725;29;20492;-94
2023/12/20 07:31:34;;;;;;;53.85;33.50;;;;;;;3.53;67.02;99213.81;4849711;29;20057;-89
2023/12/20 07:34:01;;;;;;;132.63;59.03;;;;;;;3.71;66.86;99235.06;4900741;29;20032;-92
2023/12/20 07:36:33;;;;;;;113.10;43.35;;;;;;;3.73;66.92;99222.34;4856969;29;20041;-95
2023/12/20 07:42:31;;;;;;;;;;;;;;;4.09;67.18;99257.06;4820990;29;20054;-95
2023/12/20 07:44:57;;;;;;;67.93;31.10;;;;;;;4.03;66.78;99248.13;4813261;29;19920;-95
2023/12/20 07:47:22;;;;;;;62.08;34.65;;;;;;;4.18;66.58;99229.84;4828703;29;20038;-93
2023/12/20 07:50:11;;;;;;;59.85;33.35;;;;;;;4.29;66.54;99214.91;4869708;29;20045;-96
2023/12/20 07:52:44;;;;;;;60.63;33.47;;;;;;;4.29;66.70;99206.09;4859847;29;20487;-95
2023/12/20 07:55:09;;;;;;;60.42;35.88;;;;;;;4.30;67.01;99224.53;4835938;29;20045;-95
2023/12/20 07:57:35;;;;;;;60.05;34.17;;;;;;;4.19;67.62;99207.50;4837262;29;20142;-95
2023/12/20 08:00:24;;;;;;;65.38;32.17;;;;;;;4.32;67.67;99233.13;4856477;29;20176;-94
2023/12/20 08:02:50;;;;;;;56.65;32.95;;;;;;;4.27;67.45;99210.84;4893102;29;20115;-96
2023/12/20 08:12:28;;;;;;;;;;;;;;;;;;;;;
2023/12/20 08:15:04;;;;;;;47.78;27.88;;;;;;;4.43;67.29;99168.31;4897969;29;20063;-95
2023/12/20 08:17:45;;;;;;;50.17;30.52;;;;;;;4.69;66.95;99192.06;4863805;29;20077;-96
2023/12/20 08:20:13;;;;;;;52.43;27.43;;;;;;;4.83;66.26;99177.41;4898415;29;20028;-96
2023/12/20 08:22:44;;;;;;;48.95;27.45;;;;;;;4.98;65.92;99156.41;4894826;29;20055;-95
2023/12/20 08:25:27;;;;;;;52.35;28.35;;;;;;;5.73;64.83;99199.13;4878816;29;20037;-94
2023/12/20 08:28:05;;;;;;;48.47;27.17;;;;;;;6.62;62.53;99171.63;4900977;29;20047;-95
2023/12/20 08:37:08;;;;;;;46.40;27.00;;;;;;;7.37;58.89;99156.72;4890869;29;20072;-95
2023/12/20 08:39:34;;;;;;;39.25;25.90;;;;;;;7.31;59.62;99148.91;4887881;29;20309;-94
2023/12/20 08:42:02;;;;;;;39.03;25.95;;;;;;;7.35;58.74;99132.06;4839768;29;20072;-94
2023/12/20 08:44:28;;;;;;;51.25;26.08;;;;;;;7.34;59.06;99125.09;4840019;29;20045;-94
2023/12/20 08:46:57;;;;;;;45.13;26.92;;;;;;;7.27;58.92;99111.09;4871367;29;20040;-94
2023/12/20 08:49:56;;;;;;;46.70;25.52;;;;;;;7.31;58.69;99109.53;4876743;29;20037;-94
2023/12/20 08:52:35;;;;;;;53.83;31.65;;;;;;;7.14;59.25;99106.97;4882949;29;20130;-95
2023/12/20 08:55:12;;;;;;;47.30;27.17;;;;;;;7.08;59.84;99107.97;4859964;29;20061;-96
2023/12/20 08:57:50;;;;;;;47.88;29.52;;;;;;;7.03;60.06;99089.16;4869011;29;20021;-95
2023/12/20 09:00:24;;;;;;;54.28;29.60;;;;;;;7.00;60.47;99097.72;4862496;29;20139;-94
2023/12/20 09:02:50;;;;;;;58.83;30.17;;;;;;;6.88;60.80;99077.22;4889951;29;20052;-96
2023/12/20 09:05:15;;;;;;;50.72;28.92;;;;;;;7.07;61.20;99095.63;4928769;29;20063;-94
2023/12/20 09:07:41;;;;;;;52.92;30.05;;;;;;;6.90;61.70;99097.59;4946791;28;20027;-92
2023/12/20 09:10:07;;;;;;;62.55;30.25;;;;;;;6.79;61.91;99064.56;4946321;29;20110;-92
2023/12/20 09:12:32;;;;;;;56.63;30.85;;;;;;;6.94;61.62;99061.25;4944537;29;20100;-94
2023/12/20 09:14:58;;;;;;;53.65;31.77;;;;;;;7.09;61.90;99086.28;4924965;29;20081;-93
2023/12/20 09:17:26;;;;;;;51.72;29.45;;;;;;;7.12;61.35;99054.72;4931238;29;20106;-95
2023/12/20 09:20:17;;;;;;;;;;;;;;;;;;;;;
2023/12/20 09:23:01;;;;;;;48.80;29.42;;;;;;;7.55;60.33;99024.28;4937843;29;20118;-94
2023/12/20 09:25:34;;;;;;;53.60;30.00;;;;;;;7.83;59.81;99033.06;4913568;29;20074;-95
2023/12/20 09:28:15;;;;;;;65.38;34.55;;;;;;;7.96;58.97;99026.41;4910984;29;20047;-95
2023/12/20 09:31:46;;;;;;;59.50;32.58;;;;;;;8.15;58.46;99035.63;4908937;29;20184;-95
2023/12/20 09:34:26;;;;;;;56.38;33.88;;;;;;;7.96;59.34;98997.72;4897634;29;20045;-94
2023/12/20 09:37:08;;;;;;;68.18;31.85;;;;;;;8.11;59.35;99005.03;4874657;29;20539;-95
2023/12/20 09:39:34;;;;;;;57.97;33.88;;;;;;;8.45;58.78;99031.50;5030886;23;20058;-96
2023/12/20 09:42:05;;;;;;;75.30;34.63;;;;;;;8.37;58.65;98994.44;4951145;28;20035;-94
2023/12/20 09:44:31;;;;;;;66.47;35.80;;;;;;;8.47;58.56;98994.50;4957774;29;20049;-95
2023/12/20 09:47:02;;;;;;;62.60;33.60;;;;;;;8.68;58.29;99001.53;4927652;28;20030;-94
2023/12/20 09:49:28;;;;;;;73.70;34.22;;;;;;;8.93;58.10;99015.28;4943779;28;20034;-94
2023/12/20 10:00:38;;;;;;;61.78;32.85;;;;;;;9.01;58.33;98971.78;5101471;23;20058;-95
2023/12/20 10:03:17;;;;;;;58.85;30.63;;;;;;;9.14;58.01;98975.81;4962109;28;20035;-94
2023/12/20 10:05:52;;;;;;;58.72;31.08;;;;;;;9.17;57.66;98943.84;4953594;28;20129;-92
2023/12/20 10:08:18;;;;;;;55.15;31.77;;;;;;;9.17;57.21;98932.28;4951034;28;20030;-89
2023/12/20 10:10:44;;;;;;;50.28;32.65;;;;;;;9.41;57.50;98941.38;4936689;28;20027;-92
2023/12/20 10:13:33;;;;;;;63.25;34.15;;;;;;;9.47;56.84;98928.75;4951049;28;20041;-95
2023/12/20 10:18:47;;;;;;;52.97;32.72;;;;;;;9.83;55.99;98934.81;4957306;28;20050;-92
2023/12/20 10:21:52;;;;;;;53.13;30.53;;;;;;;9.85;55.27;98907.66;4954833;28;20035;-96
2023/12/20 10:24:32;;;;;;;52.72;30.33;;;;;;;10.12;54.75;98916.16;4920354;29;20043;-95
2023/12/20 10:59:56;;;;;;;50.03;30.15;;;;;;;10.58;53.19;98834.34;5343023;23;20045;-96
2023/12/20 11:09:30;;;;;;;47.72;27.10;;;;;;;10.83;53.63;98857.59;4941065;29;20042;-95
2023/12/20 11:12:08;;;;;;;52.58;28.98;;;;;;;10.81;53.75;98846.28;4943559;28;20073;-92
2023/12/20 11:15:04;;;;;;;51.17;28.08;;;;;;;10.77;53.82;98818.31;4991800;28;20037;-94
2023/12/20 11:17:44;;;;;;;45.53;26.92;;;;;;;11.05;53.93;98845.53;4953733;28;20098;-96
2023/12/20 11:20:12;;;;;;;48.55;27.92;;;;;;;11.09;53.91;98844.66;4935083;28;20034;-95
2023/12/20 11:22:45;;;;;;;44.30;26.58;;;;;;;10.95;53.81;98811.41;4934204;28;20018;-94
2023/12/20 11:25:13;;;;;;;45.03;25.40;;;;;;;11.16;53.89;98824.66;4952126;28;20548;-93
2023/12/20 11:28:04;;;;;;;45.38;23.52;;;;;;;11.03;53.49;98789.22;4932745;28;20121;-94
2023/12/20 11:30:42;;;;;;;54.97;29.83;;;;;;;11.11;53.43;98794.00;4950896;28;20489;-92
2023/12/20 11:33:22;;;;;;;38.17;24.42;;;;;;;11.34;53.21;98810.47;4949201;28;20038;-94
2023/12/20 11:36:05;;;;;;;41.00;24.17;;;;;;;11.31;53.05;98805.66;4946991;28;20042;-96
2023/12/20 11:38:51;;;;;;;40.08;24.77;;;;;;;11.26;53.17;98784.13;4953977;28;20030;-92
2023/12/20 11:41:17;;;;;;;42.55;23.58;;;;;;;11.30;53.37;98779.78;4964238;28;20105;-91
2023/12/20 11:43:45;;;;;;;45.88;26.63;;;;;;;11.41;53.10;98791.22;4962143;28;20280;-90
2023/12/20 11:46:16;;;;;;;42.72;26.83;;;;;;;11.39;53.17;98767.25;4963865;28;20058;-90
2023/12/20 11:48:44;;;;;;;53.60;28.73;;;;;;;11.43;53.35;98767.50;4965276;28;20101;-90
2023/12/20 11:51:15;;;;;;;220.90;137.00;;;;;;;11.65;53.33;98778.53;4981490;28;20176;-94
2023/12/20 11:54:02;;;;;;;55.83;32.83;;;;;;;11.84;53.20;98786.63;4966429;28;20120;-94
2023/12/20 11:56:29;;;;;;;39.40;22.35;;;;;;;11.84;52.84;98769.66;4971011;28;20045;-95
2023/12/20 11:59:05;;;;;;;43.60;23.30;;;;;;;11.94;52.80;98758.75;4956930;28;20053;-94
2023/12/20 12:02:03;;;;;;;41.88;24.75;;;;;;;11.99;52.86;98749.75;4957906;28;20030;-95
2023/12/20 12:04:37;;;;;;;50.63;27.35;;;;;;;12.01;53.02;98752.97;4967231;28;20121;-94
2023/12/20 12:07:06;;;;;;;51.85;27.98;;;;;;;11.95;53.26;98732.56;4952908;28;20103;-92
2023/12/20 12:09:34;;;;;;;59.83;32.08;;;;;;;12.00;53.45;98727.91;4965962;28;20037;-92
2023/12/20 12:12:15;;;;;;;39.65;24.95;;;;;;;11.98;53.22;98715.81;4965351;28;20023;-94
2023/12/20 12:14:44;;;;;;;36.72;21.70;;;;;;;12.05;53.17;98725.09;4962470;28;20039;-94
2023/12/20 12:17:13;;;;;;;42.10;24.25;;;;;;;12.06;53.48;98721.31;4962387;28;20034;-93
2023/12/20 12:20:04;;;;;;;40.58;25.00;;;;;;;12.01;53.71;98717.91;4959672;28;20033;-92
2023/12/20 12:22:32;;;;;;;42.05;25.30;;;;;;;12.12;54.39;98747.13;4987405;28;20078;-95
2023/12/20 12:24:59;;;;;;;43.60;24.38;;;;;;;12.07;54.21;98731.00;4969903;28;20046;-94
2023/12/20 12:27:25;;;;;;;54.28;23.48;;;;;;;11.95;54.02;98700.19;4959881;28;20403;-92
2023/12/20 12:30:06;;;;;;;50.38;26.02;;;;;;;12.09;54.17;98722.63;4966167;28;20027;-93
2023/12/20 12:32:38;;;;;;;57.97;27.30;;;;;;;12.00;53.99;98708.22;4962625;28;20090;-93
2023/12/20 12:35:48;;;;;;;46.33;23.77;;;;;;;12.20;53.78;98729.47;4947070;28;20044;-92
2023/12/20 12:38:20;;;;;;;29.05;17.27;;;;;;;12.00;52.90;98682.03;4970230;28;20038;-92
2023/12/20 12:40:57;;;;;;;40.92;19.13;;;;;;;12.09;52.76;98679.44;4950513;28;20100;-93
2023/12/20 12:43:23;;;;;;;32.53;15.80;;;;;;;12.07;52.75;98671.66;4945702;28;20030;-92
2023/12/20 12:45:51;;;;;;;40.50;18.75;;;;;;;12.16;52.50;98676.38;4945287;28;20062;-93
2023/12/20 12:48:17;;;;;;;44.90;20.88;;;;;;;12.18;52.84;98679.56;4946556;28;20113;-93
2023/12/20 12:50:51;;;;;;;31.73;17.35;;;;;;;12.09;52.39;98671.34;4964973;28;20061;-95